TBPB Airport Information

Runway Information
Runway 09 Length 11000 ft width 150 ft
Elevation 169 ft Threshold 0 ft Heading 76
Runway 27 Length 11000 ft Width 150 ft
Elevation 160 ft Threshold 0 ft Heading 256
Airport Frequencies
Type APP Name ADAMS APP Frequency 129.35 MHZ
Type ARR Name ADAMS ARR Frequency 128.85 MHZ
Type ATIS Name ATIS Frequency 132.725 MHZ
Type DEP Name ADAMS DEP Frequency 128.85 MHZ
Type GND Name ADAMS GND Frequency 121.9 MHZ
Type TWR Name ADAMS TWR Frequency 118.7 MHZ
Airport Navaids
Type VOR-DME Name Adams Frequency 112700 KHZ
Type NDB Name Adams Frequency 345 KHZ
Airport Weather Information & NOTAM
ADDS - METARS form results

(0151 UTC 19 January 2018)
 
METAR text: TBPB 190100Z 09014KT 9999 SCT020 26/23 Q1015 NOSIG
Conditions at: TBPB (GRANTLEY ADAMS , BB) observed 0100 UTC 19 January 2018
Temperature: 26.0°C (79°F)
Dewpoint: 23.0°C (73°F) [RH = 84%]
Pressure (altimeter): 29.97 inches Hg (1015.0 mb)
Winds: from the E (90 degrees) at 16 MPH (14 knots; 7.3 m/s)
Visibility: 6 or more miles (10+ km)
Ceiling: at least 12,000 feet AGL
Clouds: scattered clouds at 2000 feet AGL
Weather: no significant weather observed at this time